createdAt,value
2018-09-26T00:00:01.012Z,100345.36
2018-09-26T00:02:17.707Z,100338.48
2018-09-26T00:04:30.611Z,100346.23
2018-09-26T00:06:42.951Z,100349.29
2018-09-26T00:08:55.127Z,100353.58
2018-09-26T00:11:07.482Z,100356.98
2018-09-26T00:13:19.673Z,100358.72
2018-09-26T00:15:31.881Z,100349.32
2018-09-26T00:17:44.145Z,100339.52
2018-09-26T00:19:56.315Z,100349.92
2018-09-26T00:22:08.567Z,100358.97
2018-09-26T00:24:20.778Z,100351.19
2018-09-26T00:26:33.070Z,100343.41
2018-09-26T00:28:45.270Z,100333.19
2018-09-26T00:30:57.478Z,100328.98
2018-09-26T00:33:09.763Z,100317.17
2018-09-26T00:35:21.947Z,100305.80
2018-09-26T00:37:34.248Z,100305.47
2018-09-26T00:39:46.419Z,100308.11
2018-09-26T00:41:58.644Z,100305.56
2018-09-26T00:44:11.004Z,100304.34
2018-09-26T00:46:23.258Z,100298.36
2018-09-26T00:48:35.567Z,100305.23
2018-09-26T00:50:47.758Z,100297.98
2018-09-26T00:52:59.978Z,100287.69
2018-09-26T00:55:12.277Z,100281.72
2018-09-26T00:57:24.486Z,100276.56
2018-09-26T00:59:36.672Z,100263.31
2018-09-26T01:01:48.870Z,100255.18
2018-09-26T01:04:01.197Z,100252.17
2018-09-26T01:06:13.462Z,100260.33
2018-09-26T01:08:25.686Z,100264.63
2018-09-26T01:10:37.943Z,100265.04
2018-09-26T01:12:50.174Z,100263.34
2018-09-26T01:15:02.406Z,100265.91
2018-09-26T01:17:14.833Z,100264.20
2018-09-26T01:19:27.052Z,100261.61
2018-09-26T01:21:39.275Z,100256.08
2018-09-26T01:23:51.434Z,100244.95
2018-09-26T01:26:03.770Z,100238.56
2018-09-26T01:28:15.956Z,100238.60
2018-09-26T01:30:28.238Z,100241.17
2018-09-26T01:32:40.430Z,100241.63
2018-09-26T01:34:52.642Z,100246.77
2018-09-26T01:37:04.903Z,100246.78
2018-09-26T01:39:17.071Z,100246.38
2018-09-26T01:41:29.398Z,100250.66
2018-09-26T01:43:41.563Z,100248.52
2018-09-26T01:45:53.805Z,100246.81
2018-09-26T01:48:06.037Z,100245.52
2018-09-26T01:50:18.264Z,100243.38
2018-09-26T01:52:30.457Z,100245.53
2018-09-26T01:54:42.642Z,100242.99
2018-09-26T01:56:54.895Z,100239.58
2018-09-26T01:59:07.109Z,100249.47
2018-09-26T02:01:19.323Z,100246.47
2018-09-26T02:03:31.663Z,100238.72
2018-09-26T02:05:43.891Z,100236.16
2018-09-26T02:07:56.145Z,100233.63
2018-09-26T02:10:08.351Z,100232.34
2018-09-26T02:12:20.565Z,100228.50
2018-09-26T02:14:32.749Z,100232.79
2018-09-26T02:16:44.966Z,100228.93
2018-09-26T02:18:57.138Z,100233.20
2018-09-26T02:21:09.346Z,100239.66
2018-09-26T02:23:21.564Z,100247.77
2018-09-26T02:25:33.762Z,100254.20
2018-09-26T02:27:46.017Z,100253.77
2018-09-26T02:29:58.231Z,100253.78
2018-09-26T02:32:10.472Z,100249.47
2018-09-26T02:34:22.676Z,100247.35
2018-09-26T02:36:34.897Z,100245.23
2018-09-26T02:38:47.121Z,100249.92
2018-09-26T02:40:59.355Z,100247.80
2018-09-26T02:43:11.591Z,100240.92
2018-09-26T02:45:23.846Z,100231.11
2018-09-26T02:47:36.050Z,100230.23
2018-09-26T02:49:48.266Z,100230.22
2018-09-26T02:52:00.467Z,100231.08
2018-09-26T02:54:12.708Z,100241.78
2018-09-26T02:56:25.007Z,100245.64
2018-09-26T02:58:37.208Z,100242.23
2018-09-26T03:00:49.417Z,100240.09
2018-09-26T03:03:01.636Z,100243.52
2018-09-26T03:05:13.863Z,100238.80
2018-09-26T03:07:26.068Z,100237.91
2018-09-26T03:09:38.258Z,100236.21
2018-09-26T03:11:50.467Z,100226.77
2018-09-26T03:14:02.686Z,100220.80
2018-09-26T03:16:14.920Z,100225.08
2018-09-26T03:18:27.151Z,100219.09
2018-09-26T03:20:39.383Z,100212.66
2018-09-26T03:22:51.582Z,100207.95
2018-09-26T03:25:03.815Z,100206.67
2018-09-26T03:27:16.047Z,100206.24
2018-09-26T03:29:28.274Z,100209.22
2018-09-26T03:31:40.531Z,100206.67
2018-09-26T03:33:52.937Z,100203.67
2018-09-26T03:36:05.073Z,100204.08
2018-09-26T03:38:17.334Z,100196.39
2018-09-26T03:40:29.595Z,100201.97
2018-09-26T03:42:41.866Z,100204.95
2018-09-26T03:44:54.134Z,100199.38
2018-09-26T03:47:06.374Z,100184.39
2018-09-26T03:49:18.573Z,100180.11
2018-09-26T03:51:30.799Z,100173.27
2018-09-26T03:53:43.023Z,100162.97
2018-09-26T03:55:55.222Z,100162.11
2018-09-26T03:58:07.459Z,100162.98
2018-09-26T04:00:19.692Z,100157.42
2018-09-26T04:02:31.897Z,100157.84
2018-09-26T04:04:44.115Z,100150.56
2018-09-26T04:06:56.330Z,100148.42
2018-09-26T04:09:08.942Z,100148.00
2018-09-26T04:11:21.118Z,100154.39
2018-09-26T04:13:33.329Z,100151.82
2018-09-26T04:15:50.887Z,100157.81
2018-09-26T04:18:03.118Z,100155.25
2018-09-26T04:20:15.413Z,100153.13
2018-09-26T04:22:27.599Z,100155.69
2018-09-26T04:24:39.815Z,100158.27
2018-09-26T04:26:52.302Z,100162.53
2018-09-26T04:29:04.364Z,100166.38
2018-09-26T04:31:16.591Z,100163.38
2018-09-26T04:33:28.863Z,100164.66
2018-09-26T04:35:41.060Z,100163.82
2018-09-26T04:37:53.266Z,100164.25
2018-09-26T04:40:05.558Z,100172.80
2018-09-26T04:42:17.796Z,100173.20
2018-09-26T04:44:30.023Z,100175.75
2018-09-26T04:46:42.245Z,100177.88
2018-09-26T04:48:54.549Z,100174.91
2018-09-26T04:51:06.763Z,100181.72
2018-09-26T04:53:19.035Z,100185.58
2018-09-26T04:55:31.280Z,100190.70
2018-09-26T04:57:43.932Z,100193.70
2018-09-26T04:59:56.118Z,100199.26
2018-09-26T05:02:08.318Z,100202.27
2018-09-26T05:04:20.560Z,100207.81
2018-09-26T05:06:32.772Z,100208.23
2018-09-26T05:08:44.994Z,100207.38
2018-09-26T05:10:57.252Z,100212.91
2018-09-26T05:13:09.468Z,100212.98
2018-09-26T05:15:21.719Z,100210.84
2018-09-26T05:17:33.965Z,100222.00
2018-09-26T05:19:46.223Z,100227.96
2018-09-26T05:21:58.426Z,100223.66
2018-09-26T05:24:10.628Z,100217.64
2018-09-26T05:26:22.883Z,100208.21
2018-09-26T05:28:35.170Z,100208.66
2018-09-26T05:30:47.402Z,100204.34
2018-09-26T05:32:59.598Z,100197.89
2018-09-26T05:35:11.781Z,100193.63
2018-09-26T05:37:23.983Z,100189.35
2018-09-26T05:39:36.174Z,100187.24
2018-09-26T05:41:48.511Z,100185.98
2018-09-26T05:44:00.678Z,100183.89
2018-09-26T05:46:12.901Z,100189.45
2018-09-26T05:48:25.151Z,100183.92
2018-09-26T05:50:37.409Z,100182.22
2018-09-26T05:52:49.606Z,100191.23
2018-09-26T05:55:01.855Z,100196.36
2018-09-26T05:57:14.124Z,100198.94
2018-09-26T05:59:26.425Z,100197.66
2018-09-26T06:01:38.572Z,100191.23
2018-09-26T06:03:50.862Z,100195.09
2018-09-26T06:06:03.088Z,100194.27
2018-09-26T06:08:15.327Z,100194.70
2018-09-26T06:10:27.561Z,100191.69
2018-09-26T06:12:39.831Z,100192.13
2018-09-26T06:14:52.079Z,100190.84
2018-09-26T06:17:04.431Z,100195.53
2018-09-26T06:19:16.703Z,100197.66
2018-09-26T06:21:28.927Z,100198.95
2018-09-26T06:23:41.133Z,100205.77
2018-09-26T06:25:53.319Z,100209.59
2018-09-26T06:28:05.589Z,100210.81
2018-09-26T06:30:17.796Z,100207.77
2018-09-26T06:32:30.014Z,100202.51
2018-09-26T06:34:42.267Z,100200.23
2018-09-26T06:36:54.496Z,100194.00
2018-09-26T06:39:09.049Z,100196.31
2018-09-26T06:41:21.271Z,100196.33
2018-09-26T06:43:33.478Z,100191.52
2018-09-26T06:45:45.666Z,100199.14
2018-09-26T06:47:57.862Z,100190.38
2018-09-26T06:50:10.070Z,100196.19
2018-09-26T06:52:22.306Z,100196.28
2018-09-26T06:54:34.546Z,100198.46
2018-09-26T06:56:46.748Z,100196.36
2018-09-26T06:58:58.988Z,100198.78
2018-09-26T07:01:11.170Z,100200.41
2018-09-26T07:03:23.438Z,100205.04
2018-09-26T07:05:35.712Z,100206.35
2018-09-26T07:07:47.934Z,100210.22
2018-09-26T07:10:00.171Z,100206.28
2018-09-26T07:12:12.366Z,100200.75
2018-09-26T07:14:24.622Z,100204.91
2018-09-26T07:16:36.826Z,100198.61
2018-09-26T07:18:49.054Z,100195.22
2018-09-26T07:21:01.296Z,100196.50
2018-09-26T07:23:13.511Z,100198.94
2018-09-26T07:25:25.724Z,100198.51
2018-09-26T07:27:37.943Z,100193.05
2018-09-26T07:29:50.139Z,100199.34
2018-09-26T07:32:02.368Z,100205.72
2018-09-26T07:34:14.606Z,100208.58
2018-09-26T07:36:26.894Z,100201.95
2018-09-26T07:38:39.236Z,100207.31
2018-09-26T07:40:51.499Z,100215.14
2018-09-26T07:43:03.735Z,100213.44
2018-09-26T07:45:15.929Z,100212.34
2018-09-26T07:47:28.175Z,100213.03
2018-09-26T07:49:40.366Z,100208.19
2018-09-26T07:51:52.698Z,100211.48
2018-09-26T07:54:04.926Z,100206.16
2018-09-26T07:56:17.185Z,100209.73
2018-09-26T07:58:29.461Z,100210.27
2018-09-26T08:00:41.692Z,100214.22
2018-09-26T08:02:53.926Z,100205.75
2018-09-26T08:05:06.239Z,100204.11
2018-09-26T08:07:18.495Z,100203.48
2018-09-26T08:09:30.752Z,100198.86
2018-09-26T08:11:43.017Z,100194.00
2018-09-26T08:13:55.186Z,100192.41
2018-09-26T08:16:07.677Z,100195.46
2018-09-26T08:18:20.035Z,100205.17
2018-09-26T08:20:32.191Z,100204.72
2018-09-26T08:22:44.407Z,100202.42
2018-09-26T08:24:56.668Z,100200.22
2018-09-26T08:27:08.902Z,100200.89
2018-09-26T08:29:21.198Z,100207.89
2018-09-26T08:31:33.442Z,100200.22
2018-09-26T08:33:45.678Z,100195.63
2018-09-26T08:35:57.895Z,100195.41
2018-09-26T08:38:10.107Z,100187.23
2018-09-26T08:40:22.775Z,100194.08
2018-09-26T08:42:35.044Z,100192.86
2018-09-26T08:44:47.320Z,100197.17
2018-09-26T08:46:59.578Z,100201.30
2018-09-26T08:49:11.881Z,100204.55
2018-09-26T08:51:24.142Z,100211.64
2018-09-26T08:53:36.445Z,100210.43
2018-09-26T08:55:48.684Z,100207.88
2018-09-26T08:58:00.904Z,100208.02
2018-09-26T09:00:13.195Z,100208.77
2018-09-26T09:02:34.154Z,100209.14
2018-09-26T09:04:46.391Z,100208.16
2018-09-26T09:06:58.663Z,100206.57
2018-09-26T09:09:10.908Z,100203.64
2018-09-26T09:11:23.214Z,100204.69
2018-09-26T09:13:35.423Z,100215.21
2018-09-26T09:15:47.690Z,100223.34
2018-09-26T09:17:59.916Z,100226.55
2018-09-26T09:20:12.531Z,100213.95
2018-09-26T09:22:24.675Z,100205.80
2018-09-26T09:24:36.879Z,100202.80
2018-09-26T09:26:49.184Z,100199.02
2018-09-26T09:29:01.380Z,100197.23
2018-09-26T09:31:13.587Z,100196.30
2018-09-26T09:33:25.779Z,100207.25
2018-09-26T09:35:38.010Z,100203.37
2018-09-26T09:37:50.638Z,100196.17
2018-09-26T09:40:02.927Z,100188.34
2018-09-26T09:42:15.161Z,100192.94
2018-09-26T09:44:27.363Z,100188.69
2018-09-26T09:46:39.553Z,100189.02
2018-09-26T09:48:51.772Z,100181.72
2018-09-26T09:51:04.103Z,100188.71
2018-09-26T09:53:19.128Z,100195.53
2018-09-26T09:55:31.329Z,100194.62
2018-09-26T09:57:43.556Z,100194.41
2018-09-26T09:59:55.747Z,100199.58
2018-09-26T10:02:08.037Z,100197.69
2018-09-26T10:04:20.214Z,100192.85
2018-09-26T10:06:32.431Z,100191.08
2018-09-26T10:08:44.704Z,100191.80
2018-09-26T10:10:56.897Z,100183.62
2018-09-26T10:13:09.139Z,100187.34
2018-09-26T10:15:21.336Z,100182.47
2018-09-26T10:17:33.625Z,100181.70
2018-09-26T10:19:45.807Z,100186.42
2018-09-26T10:21:57.974Z,100177.22
2018-09-26T10:24:10.130Z,100177.22
2018-09-26T10:26:22.389Z,100173.27
2018-09-26T10:28:34.528Z,100170.16
2018-09-26T10:30:46.772Z,100172.31
2018-09-26T10:32:58.932Z,100168.64
2018-09-26T10:35:11.171Z,100171.63
2018-09-26T10:37:23.367Z,100166.30
2018-09-26T10:39:35.526Z,100167.22
2018-09-26T10:41:47.722Z,100166.49
2018-09-26T10:43:59.943Z,100163.52
2018-09-26T10:46:12.068Z,100159.39
2018-09-26T10:48:24.231Z,100152.77
2018-09-26T10:50:36.435Z,100160.11
2018-09-26T10:52:48.554Z,100157.12
2018-09-26T10:55:00.732Z,100161.63
2018-09-26T10:57:12.925Z,100152.37
2018-09-26T10:59:25.063Z,100152.63
2018-09-26T11:01:37.226Z,100148.79
2018-09-26T11:03:49.424Z,100150.58
2018-09-26T11:06:01.653Z,100146.97
2018-09-26T11:08:13.831Z,100145.28
2018-09-26T11:10:26.064Z,100144.25
2018-09-26T11:12:38.183Z,100142.64
2018-09-26T11:14:50.348Z,100133.12
2018-09-26T11:17:02.515Z,100131.41
2018-09-26T11:19:14.703Z,100126.69
2018-09-26T11:21:26.853Z,100120.19
2018-09-26T11:23:39.044Z,100116.06
2018-09-26T11:25:51.199Z,100114.95
2018-09-26T11:28:03.408Z,100114.81
2018-09-26T11:30:15.642Z,100118.37
2018-09-26T11:32:27.827Z,100111.78
2018-09-26T11:34:39.976Z,100114.16
2018-09-26T11:36:52.143Z,100102.79
2018-09-26T11:39:06.703Z,100105.12
2018-09-26T11:41:18.911Z,100101.98
2018-09-26T11:43:31.083Z,100101.87
2018-09-26T11:45:43.266Z,100097.84
2018-09-26T11:47:55.448Z,100103.50
2018-09-26T11:50:07.675Z,100099.16
2018-09-26T11:52:19.912Z,100097.71
2018-09-26T11:54:32.023Z,100094.41
2018-09-26T11:56:44.216Z,100095.45
2018-09-26T11:58:56.355Z,100091.47
2018-09-26T12:01:08.568Z,100093.43
2018-09-26T12:03:20.736Z,100088.72
2018-09-26T12:05:32.932Z,100086.88
2018-09-26T12:07:45.140Z,100079.53
2018-09-26T12:09:57.310Z,100083.12
2018-09-26T12:12:09.556Z,100078.21
2018-09-26T12:14:21.682Z,100077.09
2018-09-26T12:16:33.875Z,100074.09
2018-09-26T12:18:46.235Z,100069.55
2018-09-26T12:20:58.499Z,100067.59
2018-09-26T12:23:10.676Z,100064.28
2018-09-26T12:25:23.144Z,100064.28
2018-09-26T12:27:35.245Z,100064.48
2018-09-26T12:29:47.435Z,100054.34
2018-09-26T12:31:59.630Z,100061.31
2018-09-26T12:34:11.795Z,100052.09
2018-09-26T12:36:24.001Z,100050.42
2018-09-26T12:38:36.109Z,100051.48
2018-09-26T12:40:48.266Z,100048.96
2018-09-26T12:43:00.505Z,100043.30
2018-09-26T12:45:12.701Z,100046.16
2018-09-26T12:47:24.942Z,100043.77
2018-09-26T12:49:37.024Z,100044.17
2018-09-26T12:51:49.154Z,100038.59
2018-09-26T12:54:01.568Z,100036.33
2018-09-26T12:56:13.503Z,100038.00
2018-09-26T12:58:25.753Z,100031.70
2018-09-26T13:00:37.884Z,100032.06
2018-09-26T13:02:50.127Z,100026.34
2018-09-26T13:05:02.369Z,100024.92
2018-09-26T13:07:14.570Z,100024.25
2018-09-26T13:09:26.766Z,100022.14
2018-09-26T13:11:38.952Z,100021.58
2018-09-26T13:13:51.115Z,100020.26
2018-09-26T13:16:03.292Z,100021.30
2018-09-26T13:18:15.524Z,100016.03
2018-09-26T13:20:27.801Z,100015.95
2018-09-26T13:22:40.095Z,100013.20
2018-09-26T13:24:52.288Z,100008.97
2018-09-26T13:27:04.446Z,100004.17
2018-09-26T13:29:16.583Z,99999.50
2018-09-26T13:31:28.800Z,99998.75
2018-09-26T13:33:40.956Z,100002.22
2018-09-26T13:35:53.120Z,99993.00
2018-09-26T13:38:05.330Z,99995.63
2018-09-26T13:40:17.570Z,99991.13
2018-09-26T13:42:29.700Z,99986.48
2018-09-26T13:44:41.854Z,99985.17
2018-09-26T13:46:54.081Z,99986.37
2018-09-26T13:49:06.170Z,99987.69
2018-09-26T13:51:18.383Z,99985.81
2018-09-26T13:53:30.580Z,99980.06
2018-09-26T13:55:42.693Z,99974.68
2018-09-26T13:57:54.851Z,99973.55
2018-09-26T14:00:07.090Z,99975.59
2018-09-26T14:02:19.371Z,99967.81
2018-09-26T14:04:31.493Z,99969.60
2018-09-26T14:06:43.700Z,99968.05
2018-09-26T14:08:55.877Z,99972.00
2018-09-26T14:11:08.046Z,99970.69
2018-09-26T14:13:20.207Z,99967.04
2018-09-26T14:15:32.452Z,99969.37
2018-09-26T14:17:44.655Z,99969.60
2018-09-26T14:19:56.827Z,99963.73
2018-09-26T14:22:09.029Z,99958.73
2018-09-26T14:24:21.153Z,99956.02
2018-09-26T14:26:33.410Z,99956.30
2018-09-26T14:28:45.602Z,99950.91
2018-09-26T14:30:57.784Z,99950.84
2018-09-26T14:33:09.962Z,99946.97
2018-09-26T14:35:22.204Z,99949.16
2018-09-26T14:37:34.385Z,99950.92
2018-09-26T14:39:46.608Z,99943.50
2018-09-26T14:41:58.784Z,99939.66
2018-09-26T14:44:10.957Z,99939.75
2018-09-26T14:46:23.118Z,99944.30
2018-09-26T14:48:35.340Z,99938.55
2018-09-26T14:50:47.558Z,99938.03
2018-09-26T14:52:59.744Z,99939.55
2018-09-26T14:55:11.965Z,99947.54
2018-09-26T14:57:24.207Z,99942.03
2018-09-26T14:59:36.317Z,99941.48
2018-09-26T15:01:48.456Z,99939.16
2018-09-26T15:04:00.663Z,99941.36
2018-09-26T15:06:12.882Z,99939.87
2018-09-26T15:08:29.570Z,99939.13
2018-09-26T15:10:41.732Z,99935.93
2018-09-26T15:12:53.927Z,99936.89
2018-09-26T15:15:06.451Z,99940.84
2018-09-26T15:17:18.624Z,99941.52
2018-09-26T15:19:30.855Z,99944.19
2018-09-26T15:21:43.034Z,99943.43
2018-09-26T15:23:55.252Z,99935.30
2018-09-26T15:26:07.493Z,99932.53
2018-09-26T15:28:19.668Z,99930.94
2018-09-26T15:30:31.871Z,99938.16
2018-09-26T15:32:44.032Z,99938.77
2018-09-26T15:34:56.231Z,99940.23
2018-09-26T15:37:08.383Z,99936.56
2018-09-26T15:39:20.620Z,99929.45
2018-09-26T15:41:32.814Z,99935.03
2018-09-26T15:43:44.970Z,99936.62
2018-09-26T15:45:57.152Z,99936.29
2018-09-26T15:48:09.471Z,99940.16
2018-09-26T15:50:21.792Z,99937.52
2018-09-26T15:52:39.459Z,99932.19
2018-09-26T15:54:51.667Z,99927.51
2018-09-26T15:57:03.866Z,99928.53
2018-09-26T15:59:16.139Z,99929.51
2018-09-26T16:01:28.374Z,99939.37
2018-09-26T16:03:40.507Z,99939.20
2018-09-26T16:05:52.750Z,99936.11
2018-09-26T16:08:05.015Z,99936.59
2018-09-26T16:10:17.228Z,99937.62
2018-09-26T16:12:29.375Z,99932.11
2018-09-26T16:14:41.538Z,99933.61
2018-09-26T16:16:53.744Z,99939.05
2018-09-26T16:19:05.972Z,99936.06
2018-09-26T16:21:18.245Z,99941.98
2018-09-26T16:23:30.418Z,99938.11
2018-09-26T16:25:42.594Z,99942.42
2018-09-26T16:27:54.784Z,99938.88
2018-09-26T16:30:09.089Z,99939.79
2018-09-26T16:32:21.326Z,99936.91
2018-09-26T16:34:33.438Z,99935.30
2018-09-26T16:36:45.683Z,99937.16
2018-09-26T16:38:57.859Z,99938.22
2018-09-26T16:41:10.108Z,99939.89
2018-09-26T16:43:22.288Z,99943.88
2018-09-26T16:45:34.512Z,99943.13
2018-09-26T16:47:46.702Z,99940.50
2018-09-26T16:49:59.048Z,99942.53
2018-09-26T16:52:11.266Z,99941.80
2018-09-26T16:54:23.482Z,99945.81
2018-09-26T16:56:35.743Z,99946.02
2018-09-26T16:58:47.982Z,99957.54
2018-09-26T17:01:00.204Z,99959.67
2018-09-26T17:03:12.408Z,99965.66
2018-09-26T17:05:24.608Z,99965.50
2018-09-26T17:07:36.827Z,99959.53
2018-09-26T17:09:49.040Z,99962.86
2018-09-26T17:12:01.185Z,99960.56
2018-09-26T17:14:13.454Z,99965.50
2018-09-26T17:16:25.686Z,99965.05
2018-09-26T17:18:37.865Z,99967.67
2018-09-26T17:20:50.064Z,99969.31
2018-09-26T17:23:02.248Z,99960.71
2018-09-26T17:25:14.402Z,99971.70
2018-09-26T17:27:26.604Z,99969.49
2018-09-26T17:29:38.842Z,99976.06
2018-09-26T17:31:51.042Z,99978.84
2018-09-26T17:34:03.269Z,99978.00
2018-09-26T17:36:15.487Z,99976.13
2018-09-26T17:38:27.656Z,99977.38
2018-09-26T17:40:39.858Z,99978.28
2018-09-26T17:42:52.080Z,99979.59
2018-09-26T17:45:05.051Z,99982.55
2018-09-26T17:47:17.282Z,99984.85
2018-09-26T17:49:29.561Z,99986.36
2018-09-26T17:51:41.751Z,99990.68
2018-09-26T17:53:53.976Z,99981.91
2018-09-26T17:56:06.380Z,99983.05
2018-09-26T17:58:18.602Z,99986.66
2018-09-26T18:00:30.775Z,99986.81
2018-09-26T18:02:42.931Z,99983.19
2018-09-26T18:04:55.151Z,99980.63
2018-09-26T18:07:07.352Z,99982.20
2018-09-26T18:09:19.571Z,99987.91
2018-09-26T18:11:31.768Z,99991.78
2018-09-26T18:13:44.022Z,99994.30
2018-09-26T18:15:56.226Z,99989.23
2018-09-26T18:18:08.480Z,99986.30
2018-09-26T18:20:20.737Z,99985.19
2018-09-26T18:22:32.927Z,99989.27
2018-09-26T18:24:45.173Z,99992.55
2018-09-26T18:26:57.395Z,99994.26
2018-09-26T18:29:09.579Z,100001.06
2018-09-26T18:31:21.830Z,100004.32
2018-09-26T18:33:34.114Z,100004.41
2018-09-26T18:35:46.408Z,100014.66
2018-09-26T18:37:58.642Z,100015.59
2018-09-26T18:40:10.893Z,100012.23
2018-09-26T18:42:23.107Z,100013.74
2018-09-26T18:44:35.355Z,100010.92
2018-09-26T18:46:47.628Z,100015.22
2018-09-26T18:48:59.923Z,100010.92
2018-09-26T18:51:12.360Z,100015.03
2018-09-26T18:53:24.603Z,100017.28
2018-09-26T18:55:36.835Z,100019.51
2018-09-26T18:57:49.104Z,100024.84
2018-09-26T19:00:01.283Z,100023.02
2018-09-26T19:02:13.540Z,100022.63
2018-09-26T19:04:25.868Z,100025.56
2018-09-26T19:06:38.043Z,100033.34
2018-09-26T19:08:50.380Z,100031.70
2018-09-26T19:11:02.549Z,100029.94
2018-09-26T19:13:14.805Z,100028.48
2018-09-26T19:15:27.036Z,100030.86
2018-09-26T19:17:39.233Z,100031.90
2018-09-26T19:19:51.399Z,100029.98
2018-09-26T19:22:03.653Z,100029.67
2018-09-26T19:24:15.899Z,100027.18
2018-09-26T19:26:28.171Z,100032.73
2018-09-26T19:28:40.429Z,100030.20
2018-09-26T19:30:52.668Z,100041.81
2018-09-26T19:33:04.980Z,100032.73
2018-09-26T19:35:17.260Z,100032.30
2018-09-26T19:37:29.562Z,100026.83
2018-09-26T19:39:41.843Z,100034.30
2018-09-26T19:41:54.134Z,100031.21
2018-09-26T19:44:06.386Z,100035.36
2018-09-26T19:46:18.608Z,100031.95
2018-09-26T19:48:31.164Z,100040.61
2018-09-26T19:50:43.354Z,100043.87
2018-09-26T19:52:55.614Z,100045.88
2018-09-26T19:55:07.870Z,100047.77
2018-09-26T19:57:20.110Z,100046.74
2018-09-26T19:59:32.378Z,100048.98
2018-09-26T20:01:44.801Z,100043.66
2018-09-26T20:03:57.090Z,100049.22
2018-09-26T20:06:09.343Z,100047.69
2018-09-26T20:08:21.561Z,100047.46
2018-09-26T20:10:33.770Z,100044.97
2018-09-26T20:12:45.948Z,100044.28
2018-09-26T20:14:58.178Z,100041.33
2018-09-26T20:17:10.372Z,100044.64
2018-09-26T20:19:22.672Z,100051.77
2018-09-26T20:21:34.872Z,100047.54
2018-09-26T20:23:47.166Z,100044.84
2018-09-26T20:25:59.362Z,100046.66
2018-09-26T20:28:11.527Z,100043.23
2018-09-26T20:30:23.778Z,100048.41
2018-09-26T20:32:35.969Z,100043.69
2018-09-26T20:34:48.224Z,100045.55
2018-09-26T20:37:00.469Z,100051.20
2018-09-26T20:39:12.703Z,100050.38
2018-09-26T20:41:25.744Z,100052.75
2018-09-26T20:43:37.990Z,100047.94
2018-09-26T20:45:50.155Z,100043.59
2018-09-26T20:48:02.349Z,100043.29
2018-09-26T20:50:14.589Z,100043.59
2018-09-26T20:52:26.765Z,100041.27
2018-09-26T20:54:39.015Z,100043.48
2018-09-26T20:56:51.238Z,100051.40
2018-09-26T20:59:03.503Z,100048.05
2018-09-26T21:01:15.684Z,100047.73
2018-09-26T21:03:27.866Z,100041.76
2018-09-26T21:05:40.587Z,100045.59
2018-09-26T21:07:52.811Z,100048.03
2018-09-26T21:10:05.037Z,100049.99
2018-09-26T21:12:17.183Z,100055.61
2018-09-26T21:14:29.421Z,100056.00
2018-09-26T21:16:41.603Z,100059.14
2018-09-26T21:18:53.804Z,100053.66
2018-09-26T21:21:06.120Z,100053.44
2018-09-26T21:23:18.309Z,100053.64
2018-09-26T21:25:30.494Z,100048.14
2018-09-26T21:27:42.637Z,100048.39
2018-09-26T21:29:54.870Z,100042.91
2018-09-26T21:32:07.042Z,100044.74
2018-09-26T21:34:19.205Z,100040.08
2018-09-26T21:36:31.415Z,100048.85
2018-09-26T21:38:43.644Z,100046.39
2018-09-26T21:40:55.822Z,100053.91
2018-09-26T21:43:08.002Z,100048.88
2018-09-26T21:45:20.170Z,100046.41
2018-09-26T21:47:32.375Z,100047.84
2018-09-26T21:49:44.658Z,100047.08
2018-09-26T21:51:56.853Z,100044.63
2018-09-26T21:54:09.092Z,100045.53
2018-09-26T21:56:21.235Z,100047.75
2018-09-26T21:58:33.415Z,100051.52
2018-09-26T22:00:51.347Z,100050.30
2018-09-26T22:03:03.767Z,100050.89
2018-09-26T22:05:16.117Z,100053.74
2018-09-26T22:07:28.434Z,100050.97
2018-09-26T22:09:40.728Z,100036.78
2018-09-26T22:11:53.073Z,100044.54
2018-09-26T22:14:05.415Z,100047.08
2018-09-26T22:16:17.802Z,100043.72
2018-09-26T22:18:30.103Z,100046.25
2018-09-26T22:20:42.420Z,100040.27
2018-09-26T22:22:54.750Z,100047.23
2018-09-26T22:25:07.092Z,100048.17
2018-09-26T22:27:19.373Z,100045.75
2018-09-26T22:29:31.742Z,100045.03
2018-09-26T22:31:44.056Z,100046.05
2018-09-26T22:33:56.375Z,100044.95
2018-09-26T22:36:08.660Z,100045.20
2018-09-26T22:38:21.007Z,100050.52
2018-09-26T22:40:33.311Z,100048.55
2018-09-26T22:42:45.667Z,100049.97
2018-09-26T22:44:58.012Z,100046.98
2018-09-26T22:47:10.326Z,100047.27
2018-09-26T22:49:22.661Z,100044.68
2018-09-26T22:51:34.975Z,100046.09
2018-09-26T22:53:47.302Z,100047.05
2018-09-26T22:55:59.651Z,100044.07
2018-09-26T22:58:12.052Z,100037.07
2018-09-26T23:00:24.334Z,100042.16
2018-09-26T23:02:36.635Z,100045.95
2018-09-26T23:04:48.964Z,100050.63
2018-09-26T23:07:01.311Z,100047.59
2018-09-26T23:09:13.607Z,100042.88
2018-09-26T23:11:25.982Z,100041.63
2018-09-26T23:13:38.291Z,100045.98
2018-09-26T23:15:50.619Z,100043.17
2018-09-26T23:18:02.920Z,100039.41
2018-09-26T23:20:15.243Z,100036.87
2018-09-26T23:22:27.664Z,100038.33
2018-09-26T23:24:40.017Z,100037.66
2018-09-26T23:26:52.322Z,100032.16
2018-09-26T23:29:04.654Z,100033.11
2018-09-26T23:31:16.939Z,100025.84
2018-09-26T23:33:29.250Z,100028.39
2018-09-26T23:35:41.552Z,100024.22
2018-09-26T23:37:53.828Z,100025.19
2018-09-26T23:40:06.174Z,100026.98
2018-09-26T23:42:18.442Z,100027.82
2018-09-26T23:44:30.781Z,100023.44
2018-09-26T23:46:43.048Z,100026.48
2018-09-26T23:48:55.348Z,100023.98
2018-09-26T23:51:07.663Z,100027.60
2018-09-26T23:53:20.015Z,100020.02
2018-09-26T23:55:32.299Z,100017.92
2018-09-26T23:57:44.665Z,100015.67
2018-09-26T23:59:56.967Z,100014.28
